createdAt,value
2024-04-18T00:01:14.922Z,53.93
2024-04-18T00:03:41.944Z,53.80
2024-04-18T00:06:08.758Z,53.83
2024-04-18T00:08:35.507Z,54.10
2024-04-18T00:11:22.261Z,53.92
2024-04-18T00:13:49.049Z,53.74
2024-04-18T00:16:35.349Z,53.79
2024-04-18T00:19:18.339Z,53.99
2024-04-18T00:22:00.971Z,54.03
2024-04-18T00:24:30.794Z,54.12
2024-04-18T00:26:57.657Z,53.89
2024-04-18T00:29:36.641Z,53.49
2024-04-18T00:32:12.646Z,53.76
2024-04-18T00:34:59.681Z,54.00
2024-04-18T00:37:35.681Z,53.80
2024-04-18T00:40:02.485Z,54.40
2024-04-18T00:42:41.549Z,54.30
2024-04-18T00:45:08.552Z,54.15
2024-04-18T00:47:49.755Z,54.68
2024-04-18T00:50:17.820Z,54.65
2024-04-18T00:52:46.750Z,54.81
2024-04-18T00:55:28.593Z,54.50
2024-04-18T00:58:12.226Z,55.17
2024-04-18T01:00:43.142Z,55.47
2024-04-18T01:03:29.610Z,55.20
2024-04-18T01:06:10.203Z,54.82
2024-04-18T01:08:56.087Z,54.67
2024-04-18T01:11:32.424Z,54.39
2024-04-18T01:14:12.274Z,54.22
2024-04-18T01:16:57.807Z,54.14
2024-04-18T01:19:24.572Z,54.32
2024-04-18T01:21:52.040Z,54.39
2024-04-18T01:24:19.814Z,54.47
2024-04-18T01:26:46.829Z,54.53
2024-04-18T01:29:13.673Z,54.56
2024-04-18T01:31:59.049Z,54.46
2024-04-18T01:34:25.967Z,54.10
2024-04-18T01:37:14.600Z,53.65
2024-04-18T01:39:43.232Z,53.73
2024-04-18T01:42:10.049Z,53.89
2024-04-18T01:44:46.476Z,54.04
2024-04-18T01:47:32.115Z,53.97
2024-04-18T01:50:09.007Z,54.39
2024-04-18T01:52:39.640Z,54.71
2024-04-18T01:55:08.007Z,55.42
2024-04-18T01:57:38.824Z,56.13
2024-04-18T02:00:33.366Z,55.63
2024-04-18T02:03:00.222Z,55.39
2024-04-18T02:05:42.926Z,55.90
2024-04-18T02:08:16.157Z,56.31
2024-04-18T02:10:46.527Z,56.57
2024-04-18T02:13:36.698Z,57.40
2024-04-18T02:16:04.772Z,57.73
2024-04-18T02:19:06.800Z,58.27
2024-04-18T02:21:53.671Z,58.34
2024-04-18T02:24:33.324Z,58.20
2024-04-18T02:27:00.106Z,58.51
2024-04-18T02:29:26.823Z,58.34
2024-04-18T02:31:59.376Z,58.38
2024-04-18T02:34:32.134Z,58.46
2024-04-18T02:37:18.938Z,57.86
2024-04-18T02:39:45.737Z,57.12
2024-04-18T02:42:24.119Z,56.55
2024-04-18T02:45:01.187Z,56.84
2024-04-18T02:47:28.296Z,56.23
2024-04-18T02:50:21.358Z,55.74
2024-04-18T02:52:48.116Z,55.76
2024-04-18T02:55:14.936Z,55.58
2024-04-18T02:57:54.944Z,54.92
2024-04-18T03:00:21.773Z,54.82
2024-04-18T03:03:08.098Z,54.85
2024-04-18T03:05:34.819Z,54.68
2024-04-18T03:08:01.607Z,54.42
2024-04-18T03:10:54.211Z,53.87
2024-04-18T03:13:39.448Z,53.66
2024-04-18T03:16:26.140Z,53.38
2024-04-18T03:18:52.976Z,53.06
2024-04-18T03:21:19.931Z,52.04
2024-04-18T03:23:46.683Z,51.90
2024-04-18T03:26:33.343Z,51.11
2024-04-18T03:29:00.158Z,50.85
2024-04-18T03:31:26.871Z,50.79
2024-04-18T03:33:53.746Z,50.13
2024-04-18T03:36:20.557Z,49.62
2024-04-18T03:38:54.427Z,49.06
2024-04-18T03:41:21.286Z,48.87
2024-04-18T03:44:08.331Z,48.87
2024-04-18T03:46:37.172Z,48.63
2024-04-18T03:49:04.391Z,48.95
2024-04-18T03:51:31.891Z,48.66
2024-04-18T03:54:24.626Z,49.15
2024-04-18T03:56:51.396Z,48.47
2024-04-18T03:59:18.147Z,48.43
2024-04-18T04:01:44.982Z,48.27
2024-04-18T04:04:11.823Z,47.82
2024-04-18T04:06:38.905Z,47.86
2024-04-18T04:09:05.680Z,47.25
2024-04-18T04:11:32.452Z,47.23
2024-04-18T04:14:00.999Z,47.33
2024-04-18T04:16:48.093Z,46.96
2024-04-18T04:19:18.202Z,46.75
2024-04-18T04:21:48.357Z,46.77
2024-04-18T04:24:15.287Z,46.29
2024-04-18T04:26:51.755Z,45.75
2024-04-18T04:29:19.124Z,44.67
2024-04-18T04:31:45.943Z,44.86
2024-04-18T04:34:13.639Z,45.07
2024-04-18T04:36:40.462Z,45.34
2024-04-18T04:39:07.265Z,45.68
2024-04-18T04:41:40.644Z,45.10
2024-04-18T04:44:07.408Z,45.36
2024-04-18T04:46:52.687Z,45.44
2024-04-18T04:49:22.710Z,45.15
2024-04-18T04:52:05.208Z,45.23
2024-04-18T04:54:45.255Z,45.00
2024-04-18T04:57:12.596Z,44.86
2024-04-18T04:59:39.735Z,44.39
2024-04-18T05:02:06.673Z,44.34
2024-04-18T05:04:50.010Z,45.13
2024-04-18T05:07:32.802Z,44.71
2024-04-18T05:10:18.968Z,45.21
2024-04-18T05:12:45.895Z,44.83
2024-04-18T05:15:32.691Z,45.69
2024-04-18T05:17:59.505Z,45.05
2024-04-18T05:20:26.305Z,45.29
2024-04-18T05:22:53.041Z,45.65
2024-04-18T05:25:19.865Z,45.96
2024-04-18T05:27:56.718Z,45.99
2024-04-18T05:30:53.974Z,46.14
2024-04-18T05:33:20.892Z,45.75
2024-04-18T05:35:48.275Z,46.11
2024-04-18T05:38:15.011Z,45.98
2024-04-18T05:40:41.794Z,45.85
2024-04-18T05:43:08.787Z,46.75
2024-04-18T05:45:48.688Z,46.35
2024-04-18T05:48:15.585Z,46.99
2024-04-18T05:50:42.975Z,46.15
2024-04-18T05:53:20.729Z,47.09
2024-04-18T05:55:56.527Z,46.41
2024-04-18T05:58:23.324Z,46.14
2024-04-18T06:00:57.462Z,46.26
2024-04-18T06:03:25.669Z,46.05
2024-04-18T06:05:53.883Z,45.69
2024-04-18T06:08:20.574Z,45.35
2024-04-18T06:10:47.560Z,45.01
2024-04-18T06:13:26.979Z,45.34
2024-04-18T06:15:54.536Z,44.96
2024-04-18T06:18:21.452Z,45.17
2024-04-18T06:20:52.535Z,45.45
2024-04-18T06:23:19.455Z,45.45
2024-04-18T06:26:06.207Z,45.92
2024-04-18T06:28:33.408Z,46.20
2024-04-18T06:31:00.330Z,46.32
2024-04-18T06:33:30.929Z,45.14
2024-04-18T06:35:59.379Z,45.20
2024-04-18T06:38:26.406Z,43.91
2024-04-18T06:40:53.136Z,43.82
2024-04-18T06:43:23.562Z,43.92
2024-04-18T06:45:51.694Z,44.46
2024-04-18T06:48:18.487Z,44.92
2024-04-18T06:50:45.760Z,44.83
2024-04-18T06:53:12.619Z,44.97
2024-04-18T06:55:39.613Z,45.09
2024-04-18T06:58:06.419Z,44.32
2024-04-18T07:00:34.179Z,43.08
2024-04-18T07:03:01.095Z,42.14
2024-04-18T07:05:46.739Z,42.33
2024-04-18T07:08:25.423Z,42.65
2024-04-18T07:10:53.183Z,41.06
2024-04-18T07:13:29.495Z,39.60
2024-04-18T07:16:00.553Z,38.88
2024-04-18T07:18:46.143Z,38.53
2024-04-18T07:21:15.493Z,38.48
2024-04-18T07:23:42.467Z,39.18
2024-04-18T07:26:09.230Z,39.36
2024-04-18T07:28:36.124Z,39.25
2024-04-18T07:31:02.983Z,39.11
2024-04-18T07:33:29.949Z,38.98
2024-04-18T07:35:58.720Z,39.12
2024-04-18T07:38:25.982Z,37.99
2024-04-18T07:40:52.708Z,36.48
2024-04-18T07:43:19.703Z,36.20
2024-04-18T07:45:46.440Z,36.25
2024-04-18T07:48:13.620Z,35.19
2024-04-18T07:50:40.816Z,35.20
2024-04-18T07:53:10.022Z,35.08
2024-04-18T07:55:37.556Z,34.81
2024-04-18T07:58:05.201Z,34.40
2024-04-18T08:00:34.181Z,34.53
2024-04-18T08:03:04.262Z,34.74
2024-04-18T08:05:34.957Z,34.90
2024-04-18T08:08:06.645Z,33.87
2024-04-18T08:10:45.979Z,34.72
2024-04-18T08:13:27.017Z,33.18
2024-04-18T08:18:28.668Z,34.26
2024-04-18T08:20:57.774Z,34.16
2024-04-18T08:23:24.834Z,34.83
2024-04-18T08:25:51.725Z,34.71
2024-04-18T08:28:18.542Z,32.80
2024-04-18T08:30:46.137Z,33.21
2024-04-18T08:33:13.450Z,34.61
2024-04-18T08:35:40.283Z,33.10
2024-04-18T08:38:09.655Z,33.10
2024-04-18T08:40:37.554Z,33.23
2024-04-18T08:43:04.691Z,33.07
2024-04-18T08:45:37.343Z,33.93
2024-04-18T08:48:06.928Z,33.61
2024-04-18T08:50:35.699Z,33.49
2024-04-18T08:53:05.565Z,31.05
2024-04-18T08:55:34.195Z,31.45
2024-04-18T08:58:05.643Z,31.38
2024-04-18T09:00:34.503Z,31.31
2024-04-18T09:03:03.031Z,31.00
2024-04-18T09:05:29.923Z,30.53
2024-04-18T09:07:56.738Z,30.73
2024-04-18T09:10:24.793Z,31.68
2024-04-18T09:12:55.596Z,32.20
2024-04-18T09:15:23.967Z,33.06
2024-04-18T09:18:17.554Z,33.33
2024-04-18T09:20:44.815Z,33.09
2024-04-18T09:23:11.577Z,33.43
2024-04-18T09:25:40.015Z,33.82
2024-04-18T09:28:07.786Z,34.13
2024-04-18T09:30:37.102Z,34.37
2024-04-18T09:33:07.414Z,34.51
2024-04-18T09:35:36.766Z,33.52
2024-04-18T09:38:10.189Z,33.20
2024-04-18T09:40:42.261Z,31.85
2024-04-18T09:43:38.097Z,30.36
2024-04-18T09:46:07.272Z,29.34
2024-04-18T09:48:35.041Z,30.03
2024-04-18T09:51:04.192Z,29.99
2024-04-18T09:53:31.453Z,29.40
2024-04-18T09:55:59.936Z,29.56
2024-04-18T09:58:28.493Z,29.59
2024-04-18T10:00:57.583Z,28.82
2024-04-18T10:03:25.728Z,28.02
2024-04-18T10:05:55.558Z,29.47
2024-04-18T10:08:25.855Z,28.42
2024-04-18T10:10:53.643Z,29.30
2024-04-18T10:13:26.838Z,27.80
2024-04-18T10:16:04.886Z,28.23
2024-04-18T10:18:39.035Z,28.07
2024-04-18T10:21:33.450Z,28.38
2024-04-18T10:24:10.886Z,27.63
2024-04-18T10:26:38.981Z,28.04
2024-04-18T10:29:21.473Z,27.57
2024-04-18T10:31:48.284Z,28.15
2024-04-18T10:34:15.346Z,28.86
2024-04-18T10:36:43.622Z,28.82
2024-04-18T10:39:10.544Z,28.62
2024-04-18T10:41:46.458Z,27.98
2024-04-18T10:44:13.371Z,27.74
2024-04-18T10:46:40.289Z,27.14
2024-04-18T10:49:07.618Z,27.62
2024-04-18T10:51:35.389Z,29.47
2024-04-18T10:54:02.346Z,29.61
2024-04-18T10:56:30.211Z,29.89
2024-04-18T10:58:57.559Z,30.65
2024-04-18T11:01:24.455Z,31.15
2024-04-18T11:03:54.758Z,30.29
2024-04-18T11:06:21.931Z,30.29
2024-04-18T11:08:53.052Z,29.59
2024-04-18T11:11:25.391Z,29.45
2024-04-18T11:13:52.215Z,28.59
2024-04-18T11:16:19.102Z,27.85
2024-04-18T11:18:47.124Z,27.51
2024-04-18T11:21:15.535Z,27.55
2024-04-18T11:23:47.331Z,26.93
2024-04-18T11:26:19.300Z,25.93
2024-04-18T11:28:50.259Z,26.38
2024-04-18T11:31:17.104Z,27.06
2024-04-18T11:33:44.638Z,26.30
2024-04-18T11:36:11.787Z,25.43
2024-04-18T11:38:41.116Z,25.86
2024-04-18T11:41:07.980Z,26.41
2024-04-18T11:43:34.949Z,26.72
2024-04-18T11:46:01.929Z,27.29
2024-04-18T11:48:28.917Z,26.67
2024-04-18T11:50:55.833Z,28.73
2024-04-18T11:53:22.718Z,26.15
2024-04-18T11:55:50.190Z,27.03
2024-04-18T11:58:26.272Z,26.23
2024-04-18T12:00:53.022Z,26.47
2024-04-18T12:03:37.967Z,26.33
2024-04-18T12:06:24.976Z,27.34
2024-04-18T12:08:54.720Z,27.28
2024-04-18T12:11:29.920Z,26.77
2024-04-18T12:14:13.399Z,26.53
2024-04-18T12:16:56.438Z,25.85
2024-04-18T12:19:42.852Z,26.28
2024-04-18T12:22:31.183Z,26.65
2024-04-18T12:25:17.390Z,26.98
2024-04-18T12:27:44.499Z,27.47
2024-04-18T12:30:30.737Z,27.93
2024-04-18T12:33:17.109Z,27.74
2024-04-18T12:35:44.171Z,27.37
2024-04-18T12:38:10.921Z,26.54
2024-04-18T12:40:44.409Z,26.60
2024-04-18T12:43:17.393Z,27.75
2024-04-18T12:46:06.528Z,26.53
2024-04-18T12:48:53.664Z,26.67
2024-04-18T12:51:20.533Z,27.97
2024-04-18T12:53:47.441Z,30.01
2024-04-18T12:56:14.561Z,31.96
2024-04-18T12:58:44.329Z,33.32
2024-04-18T13:01:12.419Z,35.03
2024-04-18T13:03:40.168Z,35.63
2024-04-18T13:06:28.483Z,35.10
2024-04-18T13:08:57.210Z,35.74
2024-04-18T13:11:42.838Z,36.32
2024-04-18T13:14:10.859Z,35.96
2024-04-18T13:16:37.803Z,36.05
2024-04-18T13:19:11.229Z,37.26
2024-04-18T13:21:38.538Z,38.04
2024-04-18T13:24:09.844Z,38.05
2024-04-18T13:26:52.505Z,38.37
2024-04-18T13:29:20.385Z,36.90
2024-04-18T13:31:47.901Z,38.00
2024-04-18T13:34:21.723Z,38.30
2024-04-18T13:36:49.063Z,36.99
2024-04-18T13:39:17.170Z,36.95
2024-04-18T13:42:04.201Z,36.33
2024-04-18T13:44:52.735Z,36.06
2024-04-18T13:47:22.319Z,35.57
2024-04-18T13:49:49.118Z,33.86
2024-04-18T13:52:16.487Z,32.67
2024-04-18T13:55:03.302Z,31.53
2024-04-18T13:57:33.553Z,32.92
2024-04-18T14:00:19.444Z,32.56
2024-04-18T14:03:09.169Z,31.24
2024-04-18T14:05:56.022Z,30.41
2024-04-18T14:08:36.161Z,31.16
2024-04-18T14:11:21.527Z,30.95
2024-04-18T14:14:04.809Z,29.55
2024-04-18T14:16:50.365Z,29.52
2024-04-18T14:19:32.720Z,28.38
2024-04-18T14:22:09.080Z,29.52
2024-04-18T14:24:36.814Z,28.58
2024-04-18T14:27:04.093Z,28.56
2024-04-18T14:29:30.951Z,27.27
2024-04-18T14:32:00.805Z,27.46
2024-04-18T14:34:47.352Z,27.78
2024-04-18T14:37:14.174Z,28.52
2024-04-18T14:39:40.987Z,27.53
2024-04-18T14:42:07.807Z,27.16
2024-04-18T14:44:34.608Z,27.18
2024-04-18T14:47:15.263Z,27.73
2024-04-18T14:50:01.280Z,27.43
2024-04-18T14:52:34.046Z,27.88
2024-04-18T14:55:01.098Z,26.46
2024-04-18T14:57:34.126Z,26.61
2024-04-18T15:00:19.620Z,26.06
2024-04-18T15:02:46.779Z,27.29
2024-04-18T15:05:36.471Z,27.91
2024-04-18T15:08:03.276Z,28.62
2024-04-18T15:10:49.123Z,28.06
2024-04-18T15:13:15.952Z,28.65
2024-04-18T15:15:43.955Z,30.03
2024-04-18T15:18:12.608Z,27.25
2024-04-18T15:20:39.789Z,27.44
2024-04-18T15:23:12.830Z,26.60
2024-04-18T15:25:39.567Z,27.36
2024-04-18T15:28:06.835Z,26.80
2024-04-18T15:30:33.840Z,28.28
2024-04-18T15:33:23.627Z,27.12
2024-04-18T15:35:53.233Z,27.57
2024-04-18T15:38:20.078Z,27.39
2024-04-18T15:41:05.883Z,27.01
2024-04-18T15:43:35.448Z,27.71
2024-04-18T15:46:04.330Z,28.18
2024-04-18T15:48:31.324Z,28.86
2024-04-18T15:50:58.597Z,28.15
2024-04-18T15:53:31.793Z,25.87
2024-04-18T15:56:08.365Z,26.22
2024-04-18T15:58:53.884Z,27.47
2024-04-18T16:01:22.465Z,28.42
2024-04-18T16:04:08.041Z,29.30
2024-04-18T16:06:53.803Z,30.15
2024-04-18T16:09:40.855Z,30.41
2024-04-18T16:12:19.802Z,30.82
2024-04-18T16:14:59.676Z,30.66
2024-04-18T16:17:26.525Z,30.72
2024-04-18T16:20:15.470Z,31.13
2024-04-18T16:22:43.339Z,30.23
2024-04-18T16:25:28.894Z,29.16
2024-04-18T16:27:55.781Z,29.19
2024-04-18T16:30:22.690Z,29.12
2024-04-18T16:32:49.646Z,29.60
2024-04-18T16:35:16.646Z,28.75
2024-04-18T16:38:06.619Z,28.50
2024-04-18T16:40:50.035Z,28.37
2024-04-18T16:43:38.038Z,28.36
2024-04-18T16:46:05.584Z,28.48
2024-04-18T16:48:32.412Z,28.04
2024-04-18T16:50:59.186Z,27.78
2024-04-18T16:53:45.910Z,28.20
2024-04-18T16:56:15.678Z,28.57
2024-04-18T16:58:54.973Z,28.91
2024-04-18T17:01:22.450Z,29.04
2024-04-18T17:03:50.194Z,29.14
2024-04-18T17:06:41.977Z,29.67
2024-04-18T17:09:14.548Z,29.32
2024-04-18T17:11:41.331Z,29.35
2024-04-18T17:14:28.003Z,29.72
2024-04-18T17:16:54.806Z,29.22
2024-04-18T17:19:21.726Z,29.30
2024-04-18T17:21:48.679Z,30.01
2024-04-18T17:24:15.651Z,30.70
2024-04-18T17:27:00.892Z,30.99
2024-04-18T17:29:27.708Z,31.23
2024-04-18T17:31:54.454Z,31.33
2024-04-18T17:34:21.214Z,31.59
2024-04-18T17:36:48.539Z,32.13
2024-04-18T17:39:35.260Z,32.25
2024-04-18T17:42:03.660Z,31.87
2024-04-18T17:44:50.690Z,30.87
2024-04-18T17:47:28.661Z,31.25
2024-04-18T17:49:56.021Z,31.36
2024-04-18T17:52:25.741Z,31.83
2024-04-18T17:54:55.090Z,32.17
2024-04-18T17:57:23.700Z,31.25
2024-04-18T18:00:13.136Z,31.97
2024-04-18T18:02:41.196Z,32.55
2024-04-18T18:05:08.002Z,33.13
2024-04-18T18:07:38.082Z,33.77
2024-04-18T18:10:07.043Z,33.86
2024-04-18T18:12:34.544Z,33.74
2024-04-18T18:15:01.685Z,33.69
2024-04-18T18:17:33.049Z,34.62
2024-04-18T18:19:59.942Z,34.26
2024-04-18T18:22:46.677Z,33.63
2024-04-18T18:25:13.526Z,33.59
2024-04-18T18:27:40.341Z,33.76
2024-04-18T18:30:27.127Z,33.55
2024-04-18T18:32:53.973Z,33.40
2024-04-18T18:35:20.767Z,33.68
2024-04-18T18:37:49.553Z,33.21
2024-04-18T18:40:20.765Z,33.37
2024-04-18T18:42:47.705Z,33.42
2024-04-18T18:45:14.866Z,33.94
2024-04-18T18:47:41.755Z,34.01
2024-04-18T18:50:18.650Z,33.73
2024-04-18T18:52:45.445Z,34.31
2024-04-18T18:55:33.535Z,34.15
2024-04-18T18:58:02.152Z,33.94
2024-04-18T19:00:30.879Z,33.60
2024-04-18T19:03:10.485Z,33.78
2024-04-18T19:05:49.593Z,33.89
2024-04-18T19:08:16.503Z,33.10
2024-04-18T19:10:52.582Z,34.02
2024-04-18T19:13:19.416Z,33.45
2024-04-18T19:16:01.859Z,33.68
2024-04-18T19:18:28.736Z,33.47
2024-04-18T19:20:56.482Z,33.26
2024-04-18T19:23:39.609Z,33.18
2024-04-18T19:26:08.065Z,33.44
2024-04-18T19:28:34.932Z,33.81
2024-04-18T19:31:03.039Z,33.70
2024-04-18T19:33:29.992Z,33.53
2024-04-18T19:35:56.899Z,33.73
2024-04-18T20:49:45.699Z,35.92
2024-04-18T20:52:12.519Z,36.13
2024-04-18T20:54:48.840Z,36.16
2024-04-18T20:57:15.705Z,36.22
2024-04-18T20:59:42.691Z,36.07
2024-04-18T21:02:09.571Z,36.28
2024-04-18T21:04:36.366Z,36.50
2024-04-18T21:07:04.266Z,35.96
2024-04-18T21:09:31.097Z,36.47
2024-04-18T21:11:58.423Z,36.09
2024-04-18T21:14:25.174Z,36.87
2024-04-18T21:16:51.939Z,36.46
2024-04-18T21:19:21.634Z,36.41
2024-04-18T21:21:49.194Z,36.63
2024-04-18T21:24:16.835Z,36.85
2024-04-18T21:26:47.314Z,37.74
2024-04-18T21:29:16.252Z,37.52
2024-04-18T21:31:43.101Z,37.57
2024-04-18T21:34:12.009Z,37.62
2024-04-18T21:36:39.111Z,37.80
2024-04-18T21:39:05.947Z,37.73
2024-04-18T21:41:32.762Z,37.71
2024-04-18T21:43:59.650Z,37.63
2024-04-18T21:46:27.142Z,38.05
2024-04-18T21:48:53.958Z,38.16
2024-04-18T21:51:20.907Z,38.31
2024-04-18T21:53:47.759Z,38.34
2024-04-18T21:56:14.704Z,37.83
2024-04-18T21:58:41.521Z,38.24
2024-04-18T22:01:28.323Z,37.78
2024-04-18T22:03:56.388Z,37.67
2024-04-18T22:06:23.399Z,38.09
2024-04-18T22:08:50.303Z,37.38
2024-04-18T22:11:17.268Z,37.19
2024-04-18T22:13:44.183Z,37.35
2024-04-18T22:16:11.154Z,37.83
2024-04-18T22:18:38.273Z,38.32
2024-04-18T22:21:05.557Z,38.08
2024-04-18T22:23:32.676Z,38.09
2024-04-18T22:25:59.637Z,38.05
2024-04-18T22:28:26.565Z,38.04
2024-04-18T22:31:02.928Z,37.65
2024-04-18T22:33:29.891Z,37.69
2024-04-18T22:35:57.453Z,37.97
2024-04-18T22:38:24.345Z,37.99
2024-04-18T22:40:51.886Z,38.38
2024-04-18T22:43:20.374Z,38.68
2024-04-18T22:45:47.374Z,38.83
2024-04-18T22:48:14.510Z,39.02
2024-04-18T22:50:45.071Z,39.27
2024-04-18T22:53:12.288Z,39.81
2024-04-18T22:55:39.200Z,39.46
2024-04-18T22:58:08.239Z,39.44
2024-04-18T23:00:39.291Z,39.57
2024-04-18T23:03:07.580Z,39.83
2024-04-18T23:05:38.618Z,40.28
2024-04-18T23:08:06.015Z,41.17
2024-04-18T23:10:33.366Z,41.37
2024-04-18T23:13:00.402Z,41.63
2024-04-18T23:15:45.586Z,41.73
2024-04-18T23:18:12.731Z,41.66
2024-04-18T23:20:39.866Z,42.20
2024-04-18T23:23:06.807Z,42.27
2024-04-18T23:25:33.710Z,41.32
2024-04-18T23:28:00.620Z,41.41
2024-04-18T23:30:27.619Z,41.10
2024-04-18T23:32:54.643Z,40.83
2024-04-18T23:35:21.582Z,41.08
2024-04-18T23:37:48.540Z,41.49
2024-04-18T23:40:15.434Z,40.92
2024-04-18T23:42:42.410Z,41.14
2024-04-18T23:45:09.376Z,41.02
2024-04-18T23:47:36.348Z,40.55
2024-04-18T23:50:03.576Z,40.97
2024-04-18T23:52:30.467Z,40.83
2024-04-18T23:54:57.351Z,40.42
2024-04-18T23:57:25.912Z,39.35
2024-04-18T23:59:52.946Z,39.59
